Welcome to Hicks Airfield

Driving Safety »



  • Current KAFW METAR
    (5.8nm NE) LIFR
    KAFW 231453Z 11004KT 4SM BR OVC003 17/16 A3010 RMK AO2 SLP188 T01670161 58003
  • Flappings Newsletter
    The official newsletter of HAPA.
    Read »
  • Property Owner's Portal
    Create an account on our owner's portal for access to secure documents.
    Log-in »